Time;durP1;ratioP1;P1;durP2;ratioP2;P2;SDS_P1;SDS_P2;PMS_P1;PMS_P2;Temp;Humidity;BMP_temperature;BMP_pressure;BME280_temperature;BME280_humidity;BME280_pressure;Samples;Min_cycle;Max_cycle;Signal;HPM_P1;HPM_P2
2022/08/29 00:00:11;;;;;;;15.20;7.97;;;;;;;17.95;74.93;96928.25;4911985;29;20053;-78
2022/08/29 00:02:46;;;;;;;10.63;9.55;;;;;;;17.98;79.92;96933.06;4912826;29;20080;-78
2022/08/29 00:05:15;;;;;;;9.43;7.75;;;;;;;18.00;80.24;96931.03;4905558;29;20091;-78
2022/08/29 00:07:43;;;;;;;8.02;7.22;;;;;;;18.02;79.49;96928.97;4911580;29;20056;-78
2022/08/29 00:10:10;;;;;;;7.55;6.65;;;;;;;18.03;77.91;96933.22;4911307;29;20085;-78
2022/08/29 00:12:38;;;;;;;9.70;8.38;;;;;;;18.04;78.95;96934.03;4912168;29;20487;-78
2022/08/29 00:15:08;;;;;;;12.05;8.40;;;;;;;17.97;76.08;96934.09;4910120;29;20088;-78
2022/08/29 00:17:36;;;;;;;14.57;7.80;;;;;;;17.89;75.06;96929.13;4910602;29;20060;-78
2022/08/29 00:20:05;;;;;;;10.75;7.35;;;;;;;17.82;74.64;96933.66;4910626;29;20056;-78
2022/08/29 00:22:34;;;;;;;8.27;7.47;;;;;;;17.77;75.42;96930.84;4910500;29;20057;-78
2022/08/29 00:25:03;;;;;;;9.02;7.40;;;;;;;17.78;76.04;96929.81;4914167;29;20055;-78
2022/08/29 00:27:31;;;;;;;10.32;8.20;;;;;;;17.82;78.25;96928.38;4914677;29;20183;-78
2022/08/29 00:29:59;;;;;;;8.63;6.97;;;;;;;17.82;76.24;96928.38;4907175;29;20076;-77
2022/08/29 00:32:33;;;;;;;10.00;7.20;;;;;;;17.81;76.45;96926.75;4914811;29;20090;-78
2022/08/29 00:35:01;;;;;;;11.40;7.50;;;;;;;17.83;76.42;96930.00;4915151;29;20057;-78
2022/08/29 00:37:29;;;;;;;9.85;7.35;;;;;;;17.78;74.86;96928.00;4915404;29;20072;-78
2022/08/29 00:39:58;;;;;;;10.05;7.13;;;;;;;17.68;74.34;96925.84;4915002;29;20404;-78
2022/08/29 00:42:26;;;;;;;9.93;7.45;;;;;;;17.60;74.46;96928.78;4914825;29;20052;-78
2022/08/29 00:44:54;;;;;;;9.57;7.93;;;;;;;17.52;74.41;96926.44;4914323;29;20087;-78
2022/08/29 00:47:29;;;;;;;9.35;6.72;;;;;;;17.46;75.25;96938.63;4909498;29;20080;-78
2022/08/29 00:49:57;;;;;;;9.75;7.30;;;;;;;17.41;74.74;96937.69;4914303;29;20052;-78
2022/08/29 00:52:30;;;;;;;8.73;6.57;;;;;;;17.38;74.81;96935.47;4910855;29;20053;-78
2022/08/29 00:55:02;;;;;;;8.27;7.43;;;;;;;17.37;76.12;96939.94;4910950;29;20412;-78
2022/08/29 00:57:32;;;;;;;11.90;7.65;;;;;;;17.36;75.03;96937.50;4913491;29;20104;-78
2022/08/29 01:00:00;;;;;;;10.55;7.13;;;;;;;17.32;75.07;96938.97;4913454;29;20472;-78
2022/08/29 01:02:28;;;;;;;10.00;7.40;;;;;;;17.27;74.78;96932.53;4913335;29;20049;-78
2022/08/29 01:04:56;;;;;;;9.55;6.95;;;;;;;17.23;75.07;96936.63;4913424;29;20080;-78
2022/08/29 01:07:24;;;;;;;10.95;7.45;;;;;;;17.21;75.16;96933.41;4912659;29;20068;-78
2022/08/29 01:09:52;;;;;;;8.25;7.28;;;;;;;17.21;74.85;96937.88;4913289;29;20084;-77
2022/08/29 01:12:22;;;;;;;9.23;7.55;;;;;;;17.19;74.90;96942.53;4912613;29;20113;-78
2022/08/29 01:14:52;;;;;;;9.75;7.80;;;;;;;17.16;74.72;96943.75;4904986;29;20120;-78
2022/08/29 01:17:23;;;;;;;9.00;6.93;;;;;;;17.14;74.66;96943.16;4912646;29;20104;-78
2022/08/29 01:19:55;;;;;;;8.50;7.60;;;;;;;17.08;74.96;96934.31;4912378;29;20080;-78
2022/08/29 01:22:43;;;;;;;8.45;7.15;;;;;;;17.05;75.21;96939.19;4908001;29;20055;-78
2022/08/29 01:25:15;;;;;;;9.13;7.35;;;;;;;17.01;75.09;96948.53;4905686;29;20052;-78
2022/08/29 01:27:47;;;;;;;9.00;7.00;;;;;;;16.98;75.34;96947.13;4908756;29;20048;-78
2022/08/29 01:30:15;;;;;;;10.10;7.38;;;;;;;16.97;75.09;96937.63;4912288;29;20084;-78
2022/08/29 01:32:43;;;;;;;10.68;6.90;;;;;;;16.94;75.18;96932.78;4910129;29;20048;-78
2022/08/29 01:35:10;;;;;;;8.85;7.28;;;;;;;16.93;75.85;96940.91;4909218;29;20076;-78
2022/08/29 01:37:41;;;;;;;10.32;7.65;;;;;;;16.98;78.54;96938.44;4910634;29;20052;-78
2022/08/29 01:40:10;;;;;;;9.88;8.63;;;;;;;17.04;80.37;96934.94;4910758;29;20064;-78
2022/08/29 01:42:39;;;;;;;8.82;7.20;;;;;;;17.03;77.36;96935.94;4905852;29;20408;-78
2022/08/29 01:45:08;;;;;;;9.63;8.45;;;;;;;17.05;78.47;96934.75;4912372;29;20506;-78
2022/08/29 01:47:38;;;;;;;8.52;6.97;;;;;;;17.04;76.75;96937.59;4911417;29;20049;-78
2022/08/29 01:50:11;;;;;;;8.73;7.57;;;;;;;17.04;76.74;96932.31;4911466;29;20064;-78
2022/08/29 01:52:40;;;;;;;8.88;6.88;;;;;;;17.04;76.00;96932.31;4911129;29;20068;-78
2022/08/29 01:55:08;;;;;;;8.77;7.88;;;;;;;17.01;75.50;96932.72;4904598;29;20175;-78
2022/08/29 01:57:36;;;;;;;8.20;7.40;;;;;;;16.97;75.33;96936.84;4903805;29;20128;-78
2022/08/29 02:00:09;;;;;;;7.47;6.47;;;;;;;16.95;75.50;96936.25;4905638;29;20053;-78
2022/08/29 02:02:38;;;;;;;8.23;7.38;;;;;;;16.93;75.19;96936.44;4911552;29;20056;-78
2022/08/29 02:05:08;;;;;;;9.52;6.90;;;;;;;16.91;75.33;96940.31;4911628;29;20487;-78
2022/08/29 02:07:35;;;;;;;10.27;7.63;;;;;;;16.88;75.26;96934.44;4910739;29;20068;-78
2022/08/29 02:10:05;;;;;;;8.43;7.35;;;;;;;16.87;75.18;96940.72;4910263;29;20057;-78
2022/08/29 02:12:33;;;;;;;9.52;7.05;;;;;;;16.86;75.24;96939.13;4911586;29;20052;-78
2022/08/29 02:15:00;;;;;;;10.63;7.82;;;;;;;16.84;74.98;96937.72;4907928;29;20104;-78
2022/08/29 02:17:30;;;;;;;9.32;6.78;;;;;;;16.80;75.02;96942.59;4906591;29;20056;-78
2022/08/29 02:19:58;;;;;;;16.90;7.65;;;;;;;16.81;76.71;96936.31;4905521;29;20060;-77
2022/08/29 02:22:25;;;;;;;9.60;7.40;;;;;;;16.82;76.47;96935.28;4917016;29;20056;-77
2022/08/29 02:24:53;;;;;;;9.63;7.13;;;;;;;16.83;76.28;96926.34;4907505;29;20139;-78
2022/08/29 02:27:20;;;;;;;9.95;6.78;;;;;;;16.82;75.45;96932.66;4905329;29;20135;-78
2022/08/29 02:29:48;;;;;;;8.75;6.88;;;;;;;16.79;75.30;96935.69;4909309;29;20112;-78
2022/08/29 02:32:16;;;;;;;7.88;7.18;;;;;;;16.76;75.16;96944.00;4903656;29;20510;-78
2022/08/29 02:34:45;;;;;;;7.22;6.53;;;;;;;16.72;75.36;96940.19;4908161;29;20073;-78
2022/08/29 02:37:15;;;;;;;9.73;7.97;;;;;;;16.70;75.19;96944.84;4909387;29;20128;-78
2022/08/29 02:39:43;;;;;;;11.20;6.53;;;;;;;16.68;75.20;96941.63;4908871;29;20504;-78
2022/08/29 02:42:10;;;;;;;8.02;7.03;;;;;;;16.64;75.22;96943.91;4908784;29;20423;-78
2022/08/29 02:44:38;;;;;;;8.00;6.78;;;;;;;16.63;75.43;96946.72;4902221;29;20504;-78
2022/08/29 02:47:07;;;;;;;9.75;7.38;;;;;;;16.60;75.58;96942.69;4906267;29;20056;-78
2022/08/29 02:49:35;;;;;;;8.68;7.00;;;;;;;16.59;75.52;96945.53;4901706;29;20567;-77
2022/08/29 02:52:07;;;;;;;8.32;7.47;;;;;;;16.57;75.48;96944.94;4908791;29;20059;-78
2022/08/29 02:54:35;;;;;;;12.80;7.30;;;;;;;16.55;75.53;96941.69;4909550;29;20052;-78
2022/08/29 02:57:03;;;;;;;9.65;7.68;;;;;;;16.52;75.63;96940.31;4909231;29;20079;-78
2022/08/29 02:59:30;;;;;;;8.00;7.20;;;;;;;16.50;75.83;96946.81;4907132;29;20052;-78
2022/08/29 03:01:58;;;;;;;10.93;7.10;;;;;;;16.48;75.86;96945.19;4908871;29;20077;-78
2022/08/29 03:04:25;;;;;;;10.75;7.57;;;;;;;16.46;75.83;96944.59;4908492;29;20075;-77
2022/08/29 03:06:54;;;;;;;9.43;6.93;;;;;;;16.46;75.72;96935.88;4909536;29;20488;-78
2022/08/29 03:09:23;;;;;;;8.93;7.00;;;;;;;16.42;75.66;96932.88;4901385;29;20090;-78
2022/08/29 03:11:54;;;;;;;8.07;7.28;;;;;;;16.41;75.70;96927.81;4908404;29;20107;-78
2022/08/29 03:14:22;;;;;;;11.55;7.70;;;;;;;16.40;75.76;96937.53;4902424;29;20057;-78
2022/08/29 03:16:50;;;;;;;9.77;7.18;;;;;;;16.45;77.47;96939.53;4909568;29;20071;-78
2022/08/29 03:19:18;;;;;;;9.10;8.20;;;;;;;16.53;80.48;96936.66;4909896;29;20056;-78
2022/08/29 03:21:46;;;;;;;10.35;9.23;;;;;;;16.60;81.56;96937.44;4909258;29;20056;-78
2022/08/29 03:24:14;;;;;;;9.52;8.55;;;;;;;16.64;81.42;96945.72;4911153;29;20252;-78
2022/08/29 03:26:43;;;;;;;13.00;7.65;;;;;;;16.56;77.39;96941.50;4908231;29;20049;-78
2022/08/29 03:29:21;;;;;;;8.60;7.50;;;;;;;16.51;76.75;96937.88;4907457;29;20056;-78
2022/08/29 03:31:48;;;;;;;8.30;7.50;;;;;;;16.50;77.41;96937.06;4907605;29;20060;-77
2022/08/29 03:34:16;;;;;;;8.52;7.72;;;;;;;16.54;78.56;96937.47;4906003;29;20082;-78
2022/08/29 03:36:43;;;;;;;17.55;8.60;;;;;;;16.54;76.94;96942.72;4901208;29;20132;-78
2022/08/29 03:39:11;;;;;;;9.43;6.75;;;;;;;16.48;75.91;96934.63;4900991;29;20431;-78
2022/08/29 03:41:39;;;;;;;10.02;6.65;;;;;;;16.44;75.32;96933.47;4907828;29;20135;-77
2022/08/29 03:44:08;;;;;;;9.93;6.97;;;;;;;16.39;75.12;96935.09;4908131;29;20576;-78
2022/08/29 03:46:37;;;;;;;7.38;5.90;;;;;;;16.36;74.85;96941.59;4907840;29;20132;-78
2022/08/29 03:49:06;;;;;;;7.13;5.75;;;;;;;16.33;74.83;96943.84;4907631;29;20053;-78
2022/08/29 03:51:35;;;;;;;8.68;7.07;;;;;;;16.28;74.80;96933.94;4907638;29;20056;-78
2022/08/29 03:54:03;;;;;;;8.15;6.15;;;;;;;16.26;74.95;96933.34;4907956;29;20120;-78
2022/08/29 03:56:30;;;;;;;7.13;6.40;;;;;;;16.22;74.91;96937.41;4908755;29;20084;-78
2022/08/29 03:58:59;;;;;;;9.45;6.95;;;;;;;16.22;75.36;96934.78;4909621;29;20089;-78
2022/08/29 04:01:28;;;;;;;7.22;6.53;;;;;;;16.23;75.57;96939.03;4912082;29;20089;-78
2022/08/29 04:03:57;;;;;;;7.30;6.60;;;;;;;16.24;75.50;96940.63;4912761;29;20191;-78
2022/08/29 04:06:27;;;;;;;8.40;6.88;;;;;;;16.25;75.36;96937.00;4912786;29;20072;-78
2022/08/29 04:08:55;;;;;;;7.78;6.32;;;;;;;16.27;76.02;96942.88;4911997;29;20052;-78
2022/08/29 04:11:24;;;;;;;10.07;7.38;;;;;;;16.23;74.51;96941.66;4910940;29;20116;-78
2022/08/29 04:13:53;;;;;;;11.38;6.90;;;;;;;16.18;74.51;96949.38;4912059;29;20072;-78
2022/08/29 04:16:23;;;;;;;9.32;6.72;;;;;;;16.17;74.94;96955.66;4912111;29;20464;-78
2022/08/29 04:18:55;;;;;;;16.85;6.88;;;;;;;16.18;74.58;96954.63;4911969;29;20060;-78
2022/08/29 04:21:24;;;;;;;7.60;6.85;;;;;;;16.20;75.93;96953.44;4911423;29;20048;-78
2022/08/29 04:23:53;;;;;;;12.98;6.65;;;;;;;16.21;76.21;96951.59;4912365;29;20112;-78
2022/08/29 04:26:22;;;;;;;7.40;6.55;;;;;;;16.22;75.43;96958.47;4911616;29;20059;-78
2022/08/29 04:29:05;;;;;;;8.48;7.18;;;;;;;16.25;78.59;96960.69;4911531;29;20096;-78
2022/08/29 04:31:34;;;;;;;9.25;6.88;;;;;;;16.24;76.17;96961.69;4911473;29;20048;-78
2022/08/29 04:34:03;;;;;;;7.95;6.75;;;;;;;16.20;75.03;96958.69;4908248;29;20081;-78
2022/08/29 04:36:30;;;;;;;12.20;7.03;;;;;;;16.16;74.82;96959.28;4911505;29;20059;-78
2022/08/29 04:38:58;;;;;;;7.93;6.07;;;;;;;16.12;74.97;96966.00;4910425;29;20052;-78
2022/08/29 04:41:25;;;;;;;8.85;7.68;;;;;;;16.10;75.10;96968.03;4910984;29;20079;-78
2022/08/29 04:43:53;;;;;;;8.15;6.32;;;;;;;16.09;74.87;96966.41;4910938;29;20053;-78
2022/08/29 04:46:21;;;;;;;9.20;6.18;;;;;;;16.06;74.74;96967.63;4910263;29;20068;-78
2022/08/29 04:48:51;;;;;;;8.13;6.75;;;;;;;16.06;76.20;96970.25;4910541;29;20555;-78
2022/08/29 04:51:21;;;;;;;8.93;5.90;;;;;;;16.06;75.37;96960.53;4907999;29;20060;-78
2022/08/29 04:53:51;;;;;;;8.13;6.13;;;;;;;16.08;75.59;96964.81;4910601;29;20049;-78
2022/08/29 04:56:20;;;;;;;8.88;6.43;;;;;;;16.08;75.01;96962.19;4909733;29;20454;-78
2022/08/29 04:58:49;;;;;;;8.60;6.90;;;;;;;16.05;74.96;96971.28;4917494;23;20048;-82
2022/08/29 05:01:19;;;;;;;8.60;5.95;;;;;;;16.02;74.85;96974.31;4900554;29;20132;-83
2022/08/29 05:03:48;;;;;;;8.05;6.68;;;;;;;16.00;74.98;96974.53;4901425;29;20136;-83
2022/08/29 05:06:18;;;;;;;7.35;6.40;;;;;;;15.98;74.91;96976.59;4900991;29;20057;-82
2022/08/29 05:08:51;;;;;;;11.07;7.47;;;;;;;15.95;75.09;96971.72;4899812;29;20045;-83
2022/08/29 05:11:28;;;;;;;12.48;7.40;;;;;;;15.99;76.01;96978.19;4900986;29;20060;-83
2022/08/29 05:13:57;;;;;;;9.90;6.90;;;;;;;15.99;75.16;96972.91;4901106;29;20055;-83
2022/08/29 05:16:28;;;;;;;7.65;6.47;;;;;;;15.99;75.02;96972.91;4901141;29;20126;-82
2022/08/29 05:18:58;;;;;;;9.05;7.07;;;;;;;15.98;75.06;96968.69;4917080;29;20052;-83
2022/08/29 05:21:30;;;;;;;9.13;7.07;;;;;;;15.98;75.48;96967.84;4924222;29;20035;-83
2022/08/29 05:24:06;;;;;;;12.07;7.28;;;;;;;15.99;75.65;96966.84;4914278;29;20048;-82
2022/08/29 05:26:36;;;;;;;12.85;7.03;;;;;;;16.01;75.46;96960.38;4901049;29;20056;-83
2022/08/29 05:29:06;;;;;;;9.35;6.75;;;;;;;16.05;75.67;96956.31;4900343;29;20053;-83
2022/08/29 05:31:36;;;;;;;9.10;7.57;;;;;;;16.09;75.64;96961.94;4900400;29;20180;-82
2022/08/29 05:34:05;;;;;;;11.52;7.38;;;;;;;16.13;75.72;96955.25;4900481;29;20513;-82
2022/08/29 05:36:53;;;;;;;9.13;6.43;;;;;;;16.17;75.75;96955.66;4900231;29;20499;-82
2022/08/29 05:39:23;;;;;;;9.48;7.40;;;;;;;16.24;76.08;96972.22;4900265;29;20052;-82
2022/08/29 05:41:54;;;;;;;9.75;7.05;;;;;;;16.30;77.14;96968.75;4899946;29;20422;-83
2022/08/29 05:44:23;;;;;;;7.43;6.72;;;;;;;16.40;79.27;96970.97;4900297;29;20136;-82
2022/08/29 05:46:51;;;;;;;11.02;8.82;;;;;;;16.51;81.47;96975.56;4900025;29;20053;-82
2022/08/29 05:49:19;;;;;;;9.32;8.43;;;;;;;16.62;83.54;96971.47;4900245;29;20108;-83
2022/08/29 05:51:48;;;;;;;13.75;10.13;;;;;;;16.72;84.26;96976.25;4899809;29;20538;-83
2022/08/29 05:54:16;;;;;;;12.88;10.38;;;;;;;16.80;85.93;96978.69;4899726;29;20060;-83
2022/08/29 05:56:46;;;;;;;11.85;9.80;;;;;;;16.84;86.19;96980.69;4900170;29;20067;-83
2022/08/29 05:59:16;;;;;;;11.68;10.57;;;;;;;16.88;86.85;96984.50;4899679;29;20056;-82
2022/08/29 06:01:45;;;;;;;12.68;9.70;;;;;;;16.91;85.86;96987.75;4899700;29;20056;-83
2022/08/29 06:04:14;;;;;;;16.05;9.52;;;;;;;16.89;81.82;96991.38;4914484;29;20040;-83
2022/08/29 06:06:42;;;;;;;10.68;8.68;;;;;;;16.82;79.12;96985.34;4922898;29;20060;-83
2022/08/29 06:09:12;;;;;;;14.60;10.32;;;;;;;16.77;77.58;96995.69;4916826;29;20052;-83
2022/08/29 06:11:41;;;;;;;12.30;9.80;;;;;;;16.77;77.68;96993.06;4902631;29;20053;-83
2022/08/29 06:14:10;;;;;;;10.80;9.32;;;;;;;16.79;77.20;96998.09;4904370;29;20112;-82
2022/08/29 06:16:39;;;;;;;10.77;9.20;;;;;;;16.82;77.20;96998.53;4903045;29;20056;-82
2022/08/29 06:19:08;;;;;;;10.75;9.70;;;;;;;16.88;78.26;96999.53;4900573;29;20522;-82
2022/08/29 06:21:37;;;;;;;11.10;9.95;;;;;;;16.92;77.19;97005.16;4899303;29;20060;-83
2022/08/29 06:24:06;;;;;;;11.23;9.57;;;;;;;16.97;77.36;97003.50;4900430;29;20480;-82
2022/08/29 06:26:35;;;;;;;10.63;9.55;;;;;;;17.04;79.35;97006.09;4900057;29;20068;-83
2022/08/29 06:29:06;;;;;;;12.27;8.82;;;;;;;17.06;76.60;97009.34;4899645;29;20049;-83
2022/08/29 06:31:36;;;;;;;12.25;9.90;;;;;;;17.10;75.62;97010.53;4899682;29;20056;-83
2022/08/29 06:34:06;;;;;;;11.80;9.07;;;;;;;17.15;76.01;97017.81;4899733;29;20067;-82
2022/08/29 06:36:35;;;;;;;9.90;8.68;;;;;;;17.23;77.52;97015.72;4899944;29;20454;-83
2022/08/29 06:39:07;;;;;;;10.35;9.05;;;;;;;17.37;79.84;97012.97;4899553;29;20079;-83
2022/08/29 06:41:36;;;;;;;11.15;10.02;;;;;;;17.48;81.04;97015.72;4899766;29;20049;-83
2022/08/29 06:44:05;;;;;;;12.15;10.02;;;;;;;17.57;81.44;97016.25;4899298;29;20052;-83
2022/08/29 06:46:37;;;;;;;13.15;9.75;;;;;;;17.65;80.21;97018.63;4899772;29;20048;-83
2022/08/29 06:49:07;;;;;;;11.18;9.35;;;;;;;17.70;77.74;97017.97;4907629;29;20096;-83
2022/08/29 06:51:37;;;;;;;15.88;10.30;;;;;;;17.77;78.90;97016.06;4920992;29;20055;-83
2022/08/29 06:54:08;;;;;;;12.43;9.57;;;;;;;17.84;77.46;97016.03;4921759;29;20051;-83
2022/08/29 06:56:39;;;;;;;11.90;9.70;;;;;;;17.94;79.27;97020.84;4906482;29;20562;-83
2022/08/29 06:59:10;;;;;;;11.20;8.80;;;;;;;18.01;77.67;97014.44;4901116;29;20468;-83
2022/08/29 07:01:41;;;;;;;11.88;9.52;;;;;;;18.08;76.87;97015.22;4900355;29;20139;-83
2022/08/29 07:04:11;;;;;;;13.65;9.57;;;;;;;18.19;76.06;97018.13;4900308;29;20056;-83
2022/08/29 07:06:43;;;;;;;10.40;8.95;;;;;;;18.27;74.73;97015.19;4900135;29;20143;-83
2022/08/29 07:09:13;;;;;;;10.68;9.60;;;;;;;18.38;75.36;97011.81;4900035;29;20053;-83
2022/08/29 07:11:42;;;;;;;12.95;9.88;;;;;;;18.52;78.28;97013.28;4900764;29;20048;-83
2022/08/29 07:14:12;;;;;;;10.27;8.15;;;;;;;18.63;75.29;97010.91;4899945;29;20057;-83
2022/08/29 07:16:43;;;;;;;18.08;9.43;;;;;;;18.75;75.64;97011.78;4900355;29;20060;-83
2022/08/29 07:19:12;;;;;;;12.55;10.23;;;;;;;18.89;77.98;97012.44;4900458;29;20052;-83
2022/08/29 07:21:41;;;;;;;15.10;9.93;;;;;;;19.01;78.35;97010.63;4900598;29;20056;-83
2022/08/29 07:24:10;;;;;;;12.75;8.38;;;;;;;19.13;74.71;97018.59;4900513;29;20060;-83
2022/08/29 07:26:42;;;;;;;11.63;8.80;;;;;;;19.22;73.95;97022.56;4901400;29;20056;-83
2022/08/29 07:29:14;;;;;;;12.20;9.57;;;;;;;19.35;72.50;97030.28;4900710;29;20048;-83
2022/08/29 07:31:44;;;;;;;10.82;8.23;;;;;;;19.49;71.46;97028.22;4901238;29;20059;-83
2022/08/29 07:34:14;;;;;;;9.77;8.13;;;;;;;19.64;70.24;97027.00;4905387;29;20100;-83
2022/08/29 07:36:43;;;;;;;12.95;9.07;;;;;;;19.79;69.91;97031.84;4904583;29;20057;-83
2022/08/29 07:39:15;;;;;;;14.15;8.40;;;;;;;19.93;68.82;97020.81;4905013;29;20055;-83
2022/08/29 07:41:45;;;;;;;11.65;8.05;;;;;;;20.10;68.05;97023.56;4904922;29;20056;-83
2022/08/29 07:44:19;;;;;;;10.57;8.98;;;;;;;20.27;67.47;97025.47;4904452;29;20052;-83
2022/08/29 07:46:54;;;;;;;11.65;7.95;;;;;;;20.44;67.37;97018.41;4905480;29;20084;-83
2022/08/29 07:49:27;;;;;;;12.45;8.18;;;;;;;20.64;67.15;97015.41;4907561;29;20059;-80
2022/08/29 07:52:08;;;;;;;10.75;7.97;;;;;;;20.88;66.44;97021.44;4907136;29;20156;-80
2022/08/29 07:54:51;;;;;;;10.32;7.78;;;;;;;21.12;65.85;97023.97;4891526;29;20075;-80
2022/08/29 07:57:26;;;;;;;11.43;7.93;;;;;;;21.44;64.91;97034.09;4910696;29;20052;-80
2022/08/29 07:59:57;;;;;;;11.30;7.80;;;;;;;21.77;63.97;97033.28;4912613;29;20108;-80
2022/08/29 08:02:31;;;;;;;12.88;7.38;;;;;;;22.13;62.97;97031.16;4913618;29;20075;-79
2022/08/29 08:05:01;;;;;;;9.35;6.75;;;;;;;22.52;62.33;97023.97;4913159;29;20052;-80
2022/08/29 08:07:37;;;;;;;8.85;7.43;;;;;;;22.99;60.44;97020.75;4915158;29;20059;-80
2022/08/29 08:10:12;;;;;;;11.05;7.10;;;;;;;23.42;58.74;97024.38;4914879;29;20140;-80
2022/08/29 08:12:44;;;;;;;10.50;6.88;;;;;;;23.85;58.09;97027.13;4915302;29;20053;-80
2022/08/29 08:15:21;;;;;;;9.40;6.07;;;;;;;24.25;55.96;97020.44;4916141;29;20067;-79
2022/08/29 09:10:14;;;;;;;7.40;4.97;;;;;;;29.44;42.89;97025.63;4920769;23;20066;-80
2022/08/29 09:12:57;;;;;;;8.40;5.53;;;;;;;29.55;42.45;97032.44;4913999;29;20089;-80
2022/08/29 09:15:33;;;;;;;8.13;5.22;;;;;;;29.63;42.01;97035.53;4906772;29;20079;-80
2022/08/29 09:18:04;;;;;;;5.55;4.68;;;;;;;29.70;41.83;97036.00;4904416;29;20044;-80
2022/08/29 09:20:34;;;;;;;7.22;5.07;;;;;;;29.54;43.17;97038.91;4902159;29;20060;-80
2022/08/29 09:23:10;;;;;;;6.97;4.95;;;;;;;29.20;42.03;97041.06;4901929;29;20056;-81
2022/08/29 09:25:39;;;;;;;6.80;4.45;;;;;;;29.01;43.36;97031.06;4901826;29;20052;-79
2022/08/29 09:28:08;;;;;;;8.30;5.18;;;;;;;28.81;42.98;97034.03;4901750;29;20140;-82
2022/08/29 09:30:40;;;;;;;5.90;4.90;;;;;;;28.52;43.67;97033.03;4901556;29;20049;-81
2022/08/29 09:33:11;;;;;;;7.05;4.60;;;;;;;28.22;43.66;97031.47;4902195;29;20056;-81
2022/08/29 09:35:42;;;;;;;4.60;4.15;;;;;;;27.92;44.76;97027.22;4904089;29;20053;-81
2022/08/29 09:38:20;;;;;;;8.77;4.50;;;;;;;27.63;44.14;97030.69;4904684;29;20143;-81
2022/08/29 09:40:56;;;;;;;6.35;4.72;;;;;;;27.53;45.03;97036.94;4907240;29;20503;-81
2022/08/29 09:43:27;;;;;;;6.72;4.55;;;;;;;27.42;44.85;97035.41;4912081;29;20053;-81
2022/08/29 09:46:13;;;;;;;7.32;4.50;;;;;;;27.25;43.88;97035.00;4914565;29;20081;-81
2022/08/29 09:48:43;;;;;;;5.78;4.18;;;;;;;27.07;44.96;97044.44;4918380;29;20112;-80
2022/08/29 09:51:15;;;;;;;4.75;3.65;;;;;;;26.89;43.57;97049.38;4919446;29;20045;-81
2022/08/29 09:53:43;;;;;;;;;;;;;;;26.79;45.23;97052.09;4923093;29;20081;-80
2022/08/29 09:56:20;;;;;;;4.97;4.47;;;;;;;26.57;45.65;97047.13;4921689;29;19907;-80
2022/08/29 09:59:00;;;;;;;5.47;4.28;;;;;;;26.42;45.74;97045.25;4922955;29;20040;-79
2022/08/29 10:01:29;;;;;;;5.13;3.90;;;;;;;26.29;45.84;97043.16;4922942;29;20047;-79
2022/08/29 10:03:59;;;;;;;6.82;4.53;;;;;;;26.16;44.88;97041.06;4923178;29;20036;-80
2022/08/29 10:06:31;;;;;;;5.22;4.00;;;;;;;26.06;44.44;97036.53;4921958;29;20073;-79
2022/08/29 10:09:02;;;;;;;4.50;3.65;;;;;;;25.97;43.67;97038.16;4923010;29;20033;-80
2022/08/29 10:11:38;;;;;;;4.47;3.40;;;;;;;25.99;43.89;97046.72;4922879;29;20040;-79
2022/08/29 10:14:09;;;;;;;6.53;4.43;;;;;;;26.18;43.56;97042.41;4923024;29;20043;-79
2022/08/29 10:16:45;;;;;;;4.38;3.28;;;;;;;26.40;42.74;97035.91;4923023;29;20052;-79
2022/08/29 10:19:17;;;;;;;4.78;4.35;;;;;;;26.65;43.13;97045.72;4923001;29;20057;-79
2022/08/29 10:21:56;;;;;;;5.47;4.25;;;;;;;26.87;43.48;97048.03;4922725;29;20036;-79
2022/08/29 10:24:41;;;;;;;7.05;4.07;;;;;;;26.96;43.44;97045.59;4922963;29;20043;-79
2022/08/29 10:27:22;;;;;;;6.78;4.60;;;;;;;27.00;41.42;97052.78;4922744;29;20033;-80
2022/08/29 10:30:02;;;;;;;5.47;3.85;;;;;;;27.08;41.49;97046.84;4922604;29;20041;-78
2022/08/29 10:32:43;;;;;;;4.15;3.47;;;;;;;27.20;41.48;97048.38;4922553;29;20056;-81
2022/08/29 10:35:15;;;;;;;5.33;4.33;;;;;;;27.37;41.40;97042.69;4922272;29;20056;-80
2022/08/29 10:37:52;;;;;;;4.80;3.67;;;;;;;27.57;41.01;97047.88;4921285;29;20059;-80
2022/08/29 10:40:26;;;;;;;4.18;3.78;;;;;;;27.72;38.92;97045.06;4919096;29;20049;-81
2022/08/29 10:43:12;;;;;;;3.63;3.33;;;;;;;27.86;40.00;97039.91;4916061;29;20139;-81
2022/08/29 10:45:53;;;;;;;5.57;3.22;;;;;;;28.03;39.03;97044.00;4913870;29;20053;-81
2022/08/29 10:48:29;;;;;;;5.13;3.40;;;;;;;28.16;44.13;97040.66;4910460;29;20052;-81
2022/08/29 10:51:10;;;;;;;4.43;3.10;;;;;;;28.24;40.23;97040.03;4905241;29;20056;-81
2022/08/29 10:53:41;;;;;;;5.30;3.40;;;;;;;28.31;39.99;97042.38;4903341;29;20044;-81
2022/08/29 10:56:17;;;;;;;3.60;3.10;;;;;;;28.32;37.62;97042.09;4901841;29;20049;-81
2022/08/29 10:58:58;;;;;;;5.28;3.78;;;;;;;28.29;38.00;97039.19;4902003;29;20481;-81
2022/08/29 11:01:30;;;;;;;4.13;3.50;;;;;;;28.27;37.70;97039.50;4901722;29;20100;-81
2022/08/29 11:04:15;;;;;;;5.97;3.67;;;;;;;28.30;38.36;97038.13;4900329;29;20052;-81
2022/08/29 11:06:49;;;;;;;4.63;3.15;;;;;;;28.33;38.23;97032.97;4900209;29;20084;-82
2022/08/29 11:09:20;;;;;;;4.25;3.30;;;;;;;28.35;38.50;97036.16;4900330;29;20570;-80
2022/08/29 11:12:02;;;;;;;4.03;3.63;;;;;;;28.42;38.28;97029.66;4899484;29;20392;-81
2022/08/29 11:14:38;;;;;;;3.97;3.20;;;;;;;28.45;37.76;97026.41;4899124;29;20092;-80
2022/08/29 11:17:10;;;;;;;6.65;3.13;;;;;;;28.53;40.38;97025.78;4898587;29;20077;-81
2022/08/29 11:19:49;;;;;;;11.95;3.67;;;;;;;28.62;37.46;97029.44;4898873;29;20468;-81
2022/08/29 11:22:20;;;;;;;3.33;3.03;;;;;;;28.65;37.29;97023.50;4897827;29;20242;-81
2022/08/29 11:24:56;;;;;;;5.70;3.20;;;;;;;28.65;36.25;97012.75;4898074;29;20492;-81
2022/08/29 11:27:33;;;;;;;6.10;3.30;;;;;;;28.65;36.69;97012.75;4897967;29;20439;-81
2022/08/29 11:30:07;;;;;;;5.10;3.25;;;;;;;28.68;36.22;97017.53;4897587;29;20088;-82
2022/08/29 11:32:45;;;;;;;5.20;3.20;;;;;;;28.75;36.87;97017.19;4897797;29;20048;-81
2022/08/29 11:35:20;;;;;;;5.70;2.83;;;;;;;28.84;36.17;97017.34;4897786;29;20080;-81
2022/08/29 11:38:36;;;;;;;5.28;3.38;;;;;;;28.94;35.85;97007.25;4897814;29;20048;-81
2022/08/29 11:41:20;;;;;;;4.50;2.85;;;;;;;28.97;34.30;97005.88;4853293;29;20088;-80
2022/08/29 11:44:07;;;;;;;3.03;2.80;;;;;;;28.89;34.82;97006.53;4897529;29;20139;-81
2022/08/29 11:46:40;;;;;;;4.95;3.20;;;;;;;28.81;33.99;97004.50;4897720;29;20482;-81
2022/08/29 11:49:23;;;;;;;4.10;3.05;;;;;;;28.80;35.36;97002.88;4899135;29;20055;-81
2022/08/29 11:51:55;;;;;;;5.47;3.13;;;;;;;28.83;35.21;96996.97;4897579;29;20077;-81
2022/08/29 11:54:50;;;;;;;4.57;3.28;;;;;;;28.87;35.34;96997.97;4897948;29;20480;-81
2022/08/29 11:57:57;;;;;;;3.72;2.95;;;;;;;28.90;35.97;96992.81;4898035;29;20108;-79
2022/08/29 12:00:44;;;;;;;51.03;8.35;;;;;;;29.00;35.01;96994.56;4897400;29;20053;-81
2022/08/29 12:03:52;;;;;;;40.83;7.70;;;;;;;29.04;36.89;96981.34;4898030;29;20509;-80
2022/08/29 12:06:52;;;;;;;5.50;3.75;;;;;;;29.04;35.58;96992.91;4897363;29;20101;-82
2022/08/29 12:09:44;;;;;;;4.47;3.25;;;;;;;29.02;36.61;97000.44;4897355;29;20474;-80
2022/08/29 12:12:34;;;;;;;3.30;2.97;;;;;;;29.01;36.49;96993.47;4896998;29;20163;-81
2022/08/29 12:15:22;;;;;;;3.83;3.28;;;;;;;29.01;36.16;96993.47;4897805;29;20080;-80
2022/08/29 12:17:50;;;;;;;4.90;3.08;;;;;;;29.02;36.37;96984.34;4897533;29;20094;-80
2022/08/29 12:20:39;;;;;;;4.05;3.50;;;;;;;29.02;36.35;96989.69;4900885;29;20048;-80
2022/08/29 12:23:18;;;;;;;4.28;3.45;;;;;;;28.95;36.26;96982.00;4901071;29;20059;-81
2022/08/29 12:25:49;;;;;;;4.72;3.30;;;;;;;28.85;36.24;96984.03;4901071;29;20080;-80
2022/08/29 12:28:44;;;;;;;5.78;3.50;;;;;;;28.72;35.99;96990.94;4900809;29;20176;-80
2022/08/29 12:31:20;;;;;;;3.80;3.40;;;;;;;28.60;35.94;96994.06;4900708;29;20456;-80
2022/08/29 12:34:10;;;;;;;8.88;3.47;;;;;;;28.48;37.38;96986.41;4900516;29;20059;-82
2022/08/29 12:36:51;;;;;;;5.53;3.55;;;;;;;28.42;37.48;96981.34;4900351;29;20147;-81
2022/08/29 12:39:32;;;;;;;3.97;3.33;;;;;;;28.35;36.97;96977.13;4900471;29;20063;-81
2022/08/29 12:42:19;;;;;;;5.20;4.10;;;;;;;28.31;37.19;96978.78;4900331;29;20120;-81
2022/08/29 12:44:48;;;;;;;5.72;3.42;;;;;;;28.28;37.72;96978.59;4900145;29;20052;-81
2022/08/29 12:47:26;;;;;;;3.92;3.30;;;;;;;28.26;38.62;96968.13;4900454;29;20415;-81